Time;durP1;ratioP1;P1;durP2;ratioP2;P2;SDS_P1;SDS_P2;PMS_P1;PMS_P2;Temp;Humidity;BMP_temperature;BMP_pressure;BME280_temperature;BME280_humidity;BME280_pressure;Samples;Min_cycle;Max_cycle;Signal;HPM_P1;HPM_P2
2022/01/23 00:00:20;;;;;;;5.35;1.95;;;;;;;;;;5051297;28;20017;-63
2022/01/23 00:02:50;;;;;;;5.82;1.70;;;;;;;;;;5051205;28;20021;-65
2022/01/23 00:05:17;;;;;;;5.15;2.00;;;;;;;;;;5051518;28;20061;-65
2022/01/23 00:07:44;;;;;;;3.50;1.50;;;;;;;;;;5051307;28;20500;-66
2022/01/23 00:10:11;;;;;;;3.88;1.60;;;;;;;;;;5051117;28;20021;-65
2022/01/23 00:13:08;;;;;;;3.92;1.70;;;;;;;;;;5051056;28;20031;-65
2022/01/23 00:18:11;;;;;;;3.58;1.58;;;;;;;;;;5031302;28;20503;-65
2022/01/23 00:20:37;;;;;;;8.25;2.00;;;;;;;;;;5031102;28;20049;-66
2022/01/23 00:23:13;;;;;;;4.43;1.77;;;;;;;;;;5030927;28;20033;-66
2022/01/23 00:31:08;;;;;;;4.10;1.65;;;;;;;;;;5031141;28;20040;-65
2022/01/23 00:33:34;;;;;;;4.20;1.92;;;;;;;;;;5034766;28;20018;-65
2022/01/23 00:36:00;;;;;;;6.43;1.92;;;;;;;;;;5035167;28;20483;-66
2022/01/23 00:38:26;;;;;;;5.60;1.67;;;;;;;;;;5035139;28;20500;-66
2022/01/23 00:40:52;;;;;;;5.97;2.03;;;;;;;;;;5034940;28;20025;-66
2022/01/23 00:43:30;;;;;;;3.85;1.75;;;;;;;;;;5034876;28;20017;-66
2022/01/23 00:46:49;;;;;;;6.82;1.95;;;;;;;;;;5033450;28;20084;-65
2022/01/23 00:49:02;;;;;;;4.00;1.60;;;;;;;;;;5034230;28;20060;-66
2022/01/23 00:51:29;;;;;;;4.43;1.70;;;;;;;;;;5035133;28;20099;-67
2022/01/23 00:53:56;;;;;;;5.45;2.20;;;;;;;;;;5035098;28;20021;-67
2022/01/23 00:56:22;;;;;;;4.22;1.90;;;;;;;;;;5035141;28;20060;-67
2022/01/23 00:58:48;;;;;;;3.85;1.67;;;;;;;;;;5034852;28;20026;-66
2022/01/23 01:01:15;;;;;;;4.97;1.63;;;;;;;;;;5034747;28;20057;-67
2022/01/23 01:03:42;;;;;;;5.32;1.88;;;;;;;;;;5034569;28;20100;-66
2022/01/23 01:06:08;;;;;;;5.43;1.80;;;;;;;;;;5034258;28;20041;-65
2022/01/23 01:08:34;;;;;;;4.20;1.75;;;;;;;;;;5034502;28;20053;-66
2022/01/23 01:11:24;;;;;;;3.22;1.55;;;;;;;;;;5034268;28;20017;-66
2022/01/23 01:33:16;;;;;;;3.45;1.45;;;;;;;;;;5054398;28;20021;-64
2022/01/23 01:35:37;;;;;;;4.53;1.80;;;;;;;;;;5053447;28;20037;-66
2022/01/23 01:38:03;;;;;;;6.35;1.85;;;;;;;;;;5053982;28;20101;-66
2022/01/23 01:40:29;;;;;;;3.78;1.65;;;;;;;;;;5054047;28;20460;-66
2022/01/23 01:42:55;;;;;;;4.80;1.85;;;;;;;;;;5053164;28;20108;-66
2022/01/23 01:45:26;;;;;;;5.60;1.92;;;;;;;;;;5053607;28;20036;-66
2022/01/23 01:47:53;;;;;;;4.70;1.70;;;;;;;;;;5054229;28;20056;-66
2022/01/23 01:50:19;;;;;;;4.18;1.90;;;;;;;;;;5053893;28;20010;-66
2022/01/23 01:52:46;;;;;;;4.93;1.90;;;;;;;;;;5053752;28;20039;-66
2022/01/23 01:55:16;;;;;;;4.35;1.92;;;;;;;;;;5053990;28;20024;-66
2022/01/23 01:57:51;;;;;;;3.83;1.45;;;;;;;;;;5053712;28;20021;-66
2022/01/23 02:00:40;;;;;;;6.18;1.80;;;;;;;;;;5053718;28;20614;-64
2022/01/23 02:08:40;;;;;;;4.85;2.03;;;;;;;;;;5043015;28;20036;-66
2022/01/23 02:11:12;;;;;;;6.53;1.80;;;;;;;;;;5033580;28;20104;-66
2022/01/23 02:13:51;;;;;;;3.95;1.88;;;;;;;;;;5031852;28;20495;-66
2022/01/23 02:17:15;;;;;;;5.05;1.65;;;;;;;;;;5037271;28;20099;-67
2022/01/23 02:53:14;;;;;;;9.65;2.05;;;;;;;;;;5052623;28;20527;-66
2022/01/23 02:54:58;;;;;;;4.22;1.70;;;;;;;;;;5051472;28;20035;-66
2022/01/23 03:00:33;;;;;;;3.97;1.50;;;;;;;;;;5050165;28;20039;-67
2022/01/23 03:03:09;;;;;;;7.10;1.80;;;;;;;;;;5031329;28;20029;-67
2022/01/23 03:05:38;;;;;;;4.95;1.75;;;;;;;;;;5032697;28;20116;-67
2022/01/23 03:10:41;;;;;;;5.05;1.70;;;;;;;;;;5032949;28;20033;-67
2022/01/23 03:13:38;;;;;;;3.92;1.77;;;;;;;;;;5032149;28;20129;-67
2022/01/23 03:16:16;;;;;;;4.20;1.77;;;;;;;;;;5031999;28;20068;-67
2022/01/23 03:29:27;;;;;;;4.05;1.73;;;;;;;;;;5030944;28;20021;-67
2022/01/23 03:34:20;;;;;;;5.50;2.00;;;;;;;;;;5031920;28;20092;-67
2022/01/23 03:36:46;;;;;;;7.82;1.77;;;;;;;;;;5031838;28;20105;-67
2022/01/23 03:39:13;;;;;;;5.25;2.05;;;;;;;;;;5031755;28;20025;-67
2022/01/23 03:41:40;;;;;;;6.55;2.25;;;;;;;;;;5031769;28;20022;-67
2022/01/23 03:44:08;;;;;;;5.85;1.98;;;;;;;;;;5031795;28;20025;-66
2022/01/23 03:46:47;;;;;;;6.13;2.10;;;;;;;;;;5031806;28;20083;-68
2022/01/23 03:49:33;;;;;;;4.53;1.75;;;;;;;;;;5031954;28;20022;-68
2022/01/23 03:52:03;;;;;;;8.27;2.10;;;;;;;;;;5031728;28;20642;-66
2022/01/23 03:54:30;;;;;;;6.30;1.55;;;;;;;;;;5031727;28;20057;-65
2022/01/23 03:56:57;;;;;;;4.72;1.80;;;;;;;;;;5031594;28;20546;-65
2022/01/23 03:59:24;;;;;;;5.18;2.25;;;;;;;;;;5031531;28;20029;-66
2022/01/23 04:01:50;;;;;;;4.82;2.05;;;;;;;;;;5031381;28;20021;-66
2022/01/23 04:04:34;;;;;;;4.55;1.83;;;;;;;;;;5031616;28;20569;-65
2022/01/23 04:07:00;;;;;;;4.78;2.17;;;;;;;;;;5033104;28;20033;-67
2022/01/23 04:09:26;;;;;;;5.07;1.92;;;;;;;;;;5034290;28;20164;-67
2022/01/23 04:11:52;;;;;;;7.38;1.80;;;;;;;;;;5035609;28;20025;-68
2022/01/23 04:14:20;;;;;;;4.85;2.13;;;;;;;;;;5035584;28;20022;-68
2022/01/23 04:17:05;;;;;;;5.10;1.92;;;;;;;;;;5035777;28;20451;-68
2022/01/23 04:19:56;;;;;;;6.40;2.00;;;;;;;;;;5035717;28;20661;-68
2022/01/23 05:00:20;;;;;;;5.82;2.30;;;;;;;;;;5033687;28;20043;-67
2022/01/23 05:05:12;;;;;;;3.38;1.77;;;;;;;;;;5034032;28;20091;-67
2022/01/23 05:07:44;;;;;;;5.03;1.85;;;;;;;;;;5034432;28;20519;-68
2022/01/23 05:10:10;;;;;;;6.07;1.92;;;;;;;;;;5034445;28;20086;-66
2022/01/23 05:12:36;;;;;;;4.82;1.95;;;;;;;;;;5034371;28;20057;-65
2022/01/23 05:15:02;;;;;;;4.57;2.10;;;;;;;;;;5034501;28;20029;-67
2022/01/23 05:17:28;;;;;;;4.25;1.85;;;;;;;;;;5034146;28;20026;-67
2022/01/23 05:19:54;;;;;;;4.25;1.70;;;;;;;;;;5032875;28;20083;-68
2022/01/23 05:24:52;;;;;;;4.07;1.83;;;;;;;;;;5034412;28;20168;-68
2022/01/23 05:27:21;;;;;;;4.68;1.65;;;;;;;;;;5034564;28;20037;-65
2022/01/23 05:29:48;;;;;;;4.50;1.92;;;;;;;;;;5034300;28;20108;-67
2022/01/23 05:32:14;;;;;;;3.92;1.67;;;;;;;;;;5034361;28;20022;-67
2022/01/23 05:34:41;;;;;;;4.82;1.80;;;;;;;;;;5034428;28;20104;-67
2022/01/23 05:37:07;;;;;;;4.20;1.60;;;;;;;;;;5034305;28;20021;-65
2022/01/23 05:39:34;;;;;;;4.68;1.70;;;;;;;;;;5034121;28;20025;-67
2022/01/23 05:42:07;;;;;;;4.32;1.92;;;;;;;;;;5034232;28;20040;-67
2022/01/23 05:44:34;;;;;;;4.03;1.67;;;;;;;;;;5034699;28;20463;-68
2022/01/23 05:47:00;;;;;;;3.63;1.50;;;;;;;;;;5033965;28;20083;-65
2022/01/23 05:49:26;;;;;;;5.30;2.30;;;;;;;;;;5033957;28;20022;-66
2022/01/23 05:51:52;;;;;;;3.83;1.40;;;;;;;;;;5033986;28;20032;-63
2022/01/23 05:54:18;;;;;;;5.68;1.95;;;;;;;;;;5033607;28;20053;-65
2022/01/23 05:56:44;;;;;;;3.67;1.60;;;;;;;;;;5033795;28;20029;-65
2022/01/23 05:59:11;;;;;;;4.88;2.08;;;;;;;;;;5033567;28;20022;-66
2022/01/23 06:01:37;;;;;;;4.40;1.63;;;;;;;;;;5033577;28;20025;-65
2022/01/23 06:04:03;;;;;;;5.35;1.85;;;;;;;;;;5033714;28;20061;-65
2022/01/23 06:06:29;;;;;;;4.25;1.75;;;;;;;;;;5033348;28;20044;-67
2022/01/23 06:08:55;;;;;;;5.07;1.67;;;;;;;;;;5033407;28;20079;-65
2022/01/23 06:11:21;;;;;;;4.85;1.83;;;;;;;;;;5033349;28;20057;-65
2022/01/23 06:13:47;;;;;;;5.15;1.85;;;;;;;;;;5033284;28;20017;-65
2022/01/23 06:16:13;;;;;;;4.90;1.98;;;;;;;;;;5033512;28;20029;-65
2022/01/23 06:18:41;;;;;;;4.80;1.85;;;;;;;;;;5033570;28;20029;-65
2022/01/23 06:21:07;;;;;;;4.55;1.70;;;;;;;;;;5033341;28;20040;-65
2022/01/23 06:23:34;;;;;;;4.75;1.80;;;;;;;;;;5033315;28;20048;-66
2022/01/23 06:26:00;;;;;;;4.30;1.65;;;;;;;;;;5033178;28;20065;-66
2022/01/23 06:28:28;;;;;;;5.10;1.77;;;;;;;;;;5033113;28;20087;-66
2022/01/23 06:30:54;;;;;;;4.70;1.90;;;;;;;;;;5031220;28;20017;-66
2022/01/23 06:33:21;;;;;;;4.35;1.52;;;;;;;;;;5033015;28;20022;-67
2022/01/23 06:35:47;;;;;;;7.68;1.80;;;;;;;;;;5033108;28;20025;-67
2022/01/23 06:38:13;;;;;;;5.22;1.80;;;;;;;;;;5032941;28;20024;-67
2022/01/23 06:40:39;;;;;;;4.88;1.90;;;;;;;;;;5032891;28;20083;-67
2022/01/23 06:43:05;;;;;;;3.60;1.45;;;;;;;;;;5032779;28;20092;-67
2022/01/23 06:45:31;;;;;;;5.20;2.00;;;;;;;;;;5032767;28;20037;-68
2022/01/23 06:47:57;;;;;;;3.45;1.60;;;;;;;;;;5032977;28;20017;-66
2022/01/23 06:50:24;;;;;;;4.43;1.95;;;;;;;;;;5033256;28;20086;-66
2022/01/23 06:52:50;;;;;;;5.30;1.70;;;;;;;;;;5031592;28;20074;-66
2022/01/23 06:55:17;;;;;;;5.47;1.95;;;;;;;;;;5032886;28;20030;-67
2022/01/23 06:57:43;;;;;;;5.03;2.00;;;;;;;;;;5033097;28;20544;-67
2022/01/23 07:00:10;;;;;;;3.90;1.92;;;;;;;;;;5032967;28;20495;-69
2022/01/23 07:02:36;;;;;;;5.65;1.83;;;;;;;;;;5033013;28;20032;-68
2022/01/23 07:05:02;;;;;;;4.97;1.70;;;;;;;;;;5032707;28;20473;-68
2022/01/23 07:07:28;;;;;;;4.97;1.70;;;;;;;;;;5032596;28;20550;-68
2022/01/23 07:09:54;;;;;;;5.78;2.28;;;;;;;;;;5032867;28;20051;-68
2022/01/23 07:12:20;;;;;;;3.42;1.70;;;;;;;;;;5032311;28;20033;-68
2022/01/23 07:14:46;;;;;;;5.35;2.00;;;;;;;;;;5032569;28;20028;-68
2022/01/23 07:17:12;;;;;;;5.78;1.80;;;;;;;;;;5032782;28;20056;-69
2022/01/23 07:19:38;;;;;;;5.25;2.00;;;;;;;;;;5032486;28;20489;-67
2022/01/23 07:22:04;;;;;;;5.78;1.98;;;;;;;;;;5032443;28;20477;-68
2022/01/23 07:24:31;;;;;;;4.57;1.80;;;;;;;;;;5032414;28;20026;-68
2022/01/23 07:27:00;;;;;;;4.15;1.60;;;;;;;;;;5032222;28;20029;-68
2022/01/23 07:29:26;;;;;;;4.93;1.70;;;;;;;;;;5031384;28;20108;-64
2022/01/23 07:31:58;;;;;;;7.03;2.20;;;;;;;;;;5032574;28;20075;-66
2022/01/23 07:34:24;;;;;;;8.27;2.20;;;;;;;;;;5032361;28;20071;-66
2022/01/23 07:36:50;;;;;;;5.63;1.92;;;;;;;;;;5032369;28;20091;-67
2022/01/23 07:39:16;;;;;;;5.05;1.95;;;;;;;;;;5032165;28;20360;-67
2022/01/23 07:41:42;;;;;;;5.88;2.20;;;;;;;;;;5032250;28;20017;-67
2022/01/23 07:44:08;;;;;;;8.68;2.50;;;;;;;;;;5031912;28;20052;-67
2022/01/23 07:46:34;;;;;;;5.47;1.80;;;;;;;;;;5031677;28;20041;-67
2022/01/23 07:49:01;;;;;;;4.68;1.98;;;;;;;;;;5031752;28;20026;-68
2022/01/23 07:51:27;;;;;;;4.70;2.13;;;;;;;;;;5030674;28;20029;-68
2022/01/23 07:53:53;;;;;;;4.18;1.77;;;;;;;;;;5031733;28;20603;-68
2022/01/23 07:56:19;;;;;;;5.80;2.58;;;;;;;;;;5031484;28;20527;-67
2022/01/23 07:58:45;;;;;;;4.15;1.98;;;;;;;;;;5031610;28;20492;-66
2022/01/23 08:01:11;;;;;;;5.13;2.00;;;;;;;;;;5031567;28;20105;-67
2022/01/23 08:03:37;;;;;;;6.90;2.20;;;;;;;;;;5031228;28;20036;-68
2022/01/23 08:06:05;;;;;;;6.70;2.42;;;;;;;;;;5031232;28;20084;-67
2022/01/23 08:08:31;;;;;;;5.63;2.15;;;;;;;;;;5031317;28;20024;-67
2022/01/23 08:10:57;;;;;;;6.47;2.50;;;;;;;;;;5031257;28;20068;-65
2022/01/23 08:13:23;;;;;;;7.72;2.30;;;;;;;;;;5031348;28;20080;-65
2022/01/23 08:15:49;;;;;;;6.78;2.53;;;;;;;;;;5031510;28;20025;-64
2022/01/23 08:18:15;;;;;;;5.45;2.20;;;;;;;;;;5031459;28;20030;-65
2022/01/23 08:20:42;;;;;;;9.43;2.15;;;;;;;;;;5031056;28;20057;-68
2022/01/23 08:23:09;;;;;;;4.35;2.00;;;;;;;;;;5031290;28;20024;-68
2022/01/23 08:25:35;;;;;;;11.18;2.55;;;;;;;;;;5031507;28;20034;-66
2022/01/23 08:28:01;;;;;;;8.18;2.35;;;;;;;;;;5031636;28;20361;-67
2022/01/23 08:30:28;;;;;;;6.47;2.10;;;;;;;;;;5030999;28;20025;-66
2022/01/23 08:32:54;;;;;;;6.97;2.28;;;;;;;;;;5031021;28;20100;-66
2022/01/23 08:35:20;;;;;;;7.53;2.03;;;;;;;;;;5031094;28;20025;-66
2022/01/23 08:37:46;;;;;;;5.85;2.30;;;;;;;;;;5031511;28;20044;-67
2022/01/23 08:40:20;;;;;;;5.75;2.47;;;;;;;;;;5031756;28;20072;-66
2022/01/23 08:42:46;;;;;;;7.20;2.50;;;;;;;;;;5031621;28;20104;-67
2022/01/23 08:45:14;;;;;;;4.50;1.90;;;;;;;;;;5030072;28;20105;-66
2022/01/23 08:47:40;;;;;;;5.03;2.10;;;;;;;;;;5031694;28;20017;-67
2022/01/23 08:50:06;;;;;;;4.82;2.05;;;;;;;;;;5031590;28;20036;-66
2022/01/23 08:52:32;;;;;;;7.30;2.05;;;;;;;;;;5031872;28;20497;-68
2022/01/23 08:54:59;;;;;;;4.97;2.22;;;;;;;;;;5035490;28;20029;-65
2022/01/23 08:57:25;;;;;;;6.10;2.45;;;;;;;;;;5035267;28;20085;-67
2022/01/23 08:59:52;;;;;;;6.38;2.10;;;;;;;;;;5035066;28;20027;-66
2022/01/23 09:02:18;;;;;;;6.07;2.30;;;;;;;;;;5035070;28;20045;-67
2022/01/23 09:04:45;;;;;;;6.10;2.10;;;;;;;;;;5035044;28;20022;-66
2022/01/23 09:07:12;;;;;;;5.20;2.53;;;;;;;;;;5033692;28;20026;-67
2022/01/23 09:09:39;;;;;;;5.03;2.05;;;;;;;;;;5035054;28;20025;-67
2022/01/23 09:12:42;;;;;;;6.25;2.70;;;;;;;;;;5034897;28;20100;-67
2022/01/23 09:14:53;;;;;;;4.60;2.00;;;;;;;;;;5034379;28;20160;-66
2022/01/23 09:17:19;;;;;;;7.05;2.60;;;;;;;;;;5034487;28;20021;-67
2022/01/23 09:19:47;;;;;;;5.93;2.47;;;;;;;;;;5034716;28;20041;-67
2022/01/23 09:22:14;;;;;;;6.10;2.20;;;;;;;;;;5034590;28;20025;-66
2022/01/23 09:24:40;;;;;;;6.05;2.03;;;;;;;;;;5034583;28;20025;-67
2022/01/23 09:27:08;;;;;;;5.38;2.45;;;;;;;;;;5034566;28;20033;-67
2022/01/23 09:29:37;;;;;;;5.32;2.10;;;;;;;;;;5034613;28;20021;-68
2022/01/23 09:32:09;;;;;;;5.10;2.10;;;;;;;;;;5034131;28;20565;-67
2022/01/23 09:34:36;;;;;;;6.20;2.17;;;;;;;;;;5034665;28;20036;-69
2022/01/23 09:37:04;;;;;;;5.60;2.35;;;;;;;;;;5034538;28;20025;-68
2022/01/23 09:39:31;;;;;;;5.70;2.30;;;;;;;;;;5034420;28;20036;-69
2022/01/23 09:42:02;;;;;;;6.50;2.58;;;;;;;;;;5034352;28;20022;-68
2022/01/23 09:44:31;;;;;;;5.68;2.38;;;;;;;;;;5034485;28;20067;-68
2022/01/23 09:46:57;;;;;;;6.65;2.00;;;;;;;;;;5034005;28;20554;-70
2022/01/23 09:49:25;;;;;;;5.90;2.35;;;;;;;;;;5033593;28;20108;-70
2022/01/23 09:51:53;;;;;;;5.85;2.20;;;;;;;;;;5032232;28;20025;-68
2022/01/23 09:54:19;;;;;;;8.15;2.38;;;;;;;;;;5033872;28;20104;-68
2022/01/23 09:56:45;;;;;;;5.93;2.50;;;;;;;;;;5033795;28;20083;-67
2022/01/23 09:59:12;;;;;;;7.20;2.67;;;;;;;;;;5036753;28;20025;-67
2022/01/23 10:01:39;;;;;;;9.25;2.05;;;;;;;;;;5046018;28;20028;-67
2022/01/23 10:04:05;;;;;;;5.82;2.30;;;;;;;;;;5052049;28;20025;-67
2022/01/23 10:06:31;;;;;;;6.82;2.95;;;;;;;;;;5033109;28;20029;-67
2022/01/23 10:08:59;;;;;;;7.18;2.20;;;;;;;;;;5033767;28;20060;-67
2022/01/23 10:11:25;;;;;;;5.80;2.00;;;;;;;;;;5032573;28;20475;-67
2022/01/23 10:13:52;;;;;;;8.40;2.00;;;;;;;;;;5032226;28;20025;-65
2022/01/23 10:16:19;;;;;;;6.85;2.38;;;;;;;;;;5033985;28;20029;-65
2022/01/23 10:18:45;;;;;;;4.55;2.00;;;;;;;;;;5053178;28;20031;-66
2022/01/23 10:21:11;;;;;;;7.97;2.70;;;;;;;;;;5053148;28;20175;-65
2022/01/23 10:23:37;;;;;;;6.47;2.80;;;;;;;;;;5053016;28;20577;-65
2022/01/23 10:26:04;;;;;;;5.32;2.20;;;;;;;;;;5051721;28;20033;-64
2022/01/23 10:28:34;;;;;;;7.55;2.67;;;;;;;;;;5052978;28;20045;-63
2022/01/23 10:31:05;;;;;;;6.50;2.50;;;;;;;;;;5053018;28;20025;-65
2022/01/23 10:33:35;;;;;;;7.55;2.90;;;;;;;;;;5051481;28;20091;-62
2022/01/23 10:36:01;;;;;;;7.20;2.22;;;;;;;;;;5052698;28;20025;-64
2022/01/23 10:38:29;;;;;;;5.93;2.50;;;;;;;;;;5052993;28;20025;-65
2022/01/23 10:41:49;;;;;;;10.93;3.05;;;;;;;;;;5052964;28;20416;-63
2022/01/23 10:49:53;;;;;;;13.70;2.70;;;;;;;;;;5052623;28;20036;-65
2022/01/23 10:52:37;;;;;;;9.07;3.00;;;;;;;;;;5051999;28;20032;-65
2022/01/23 10:55:05;;;;;;;10.75;2.35;;;;;;;;;;5051056;28;20021;-66
2022/01/23 10:57:35;;;;;;;6.20;2.70;;;;;;;;;;5052077;28;20021;-65
2022/01/23 11:00:04;;;;;;;6.70;2.83;;;;;;;;;;5052057;28;20032;-67
2022/01/23 11:02:30;;;;;;;4.95;2.42;;;;;;;;;;5050923;28;20380;-67
2022/01/23 11:04:57;;;;;;;9.23;3.22;;;;;;;;;;5052666;28;20033;-68
2022/01/23 11:07:25;;;;;;;6.93;2.78;;;;;;;;;;5052449;28;20110;-68
2022/01/23 11:10:08;;;;;;;7.97;2.90;;;;;;;;;;5052350;28;20032;-67
2022/01/23 11:12:46;;;;;;;8.65;3.30;;;;;;;;;;5052142;28;20094;-63
2022/01/23 11:18:02;;;;;;;10.75;3.28;;;;;;;;;;5052301;28;20060;-67
2022/01/23 11:20:39;;;;;;;9.15;2.90;;;;;;;;;;5050456;28;20075;-67
2022/01/23 11:23:18;;;;;;;7.18;3.00;;;;;;;;;;5051750;28;20080;-65
2022/01/23 11:25:44;;;;;;;7.07;3.20;;;;;;;;;;5051833;28;20475;-67
2022/01/23 11:28:11;;;;;;;5.80;2.78;;;;;;;;;;5050750;28;20116;-65
2022/01/23 11:30:40;;;;;;;6.50;2.75;;;;;;;;;;5050726;28;20025;-66
2022/01/23 11:33:08;;;;;;;8.05;3.40;;;;;;;;;;5051642;28;20052;-65
2022/01/23 11:35:34;;;;;;;8.27;3.13;;;;;;;;;;5051560;28;20464;-64
2022/01/23 11:38:02;;;;;;;8.32;3.40;;;;;;;;;;5051351;28;20039;-66
2022/01/23 11:53:53;;;;;;;7.15;3.28;;;;;;;;;;5051579;28;20349;-65
2022/01/23 11:56:29;;;;;;;8.75;3.30;;;;;;;;;;5051704;28;20033;-67
2022/01/23 11:59:15;;;;;;;7.07;3.10;;;;;;;;;;5051724;28;20025;-66
2022/01/23 12:01:44;;;;;;;6.15;2.72;;;;;;;;;;5050508;28;20458;-67
2022/01/23 12:04:21;;;;;;;7.05;2.78;;;;;;;;;;5051528;28;20017;-68
2022/01/23 12:07:06;;;;;;;8.00;2.85;;;;;;;;;;5050109;28;20488;-67
2022/01/23 12:09:32;;;;;;;9.65;3.40;;;;;;;;;;5050587;28;20178;-67
2022/01/23 12:12:07;;;;;;;7.00;3.13;;;;;;;;;;5051629;28;20496;-67
2022/01/23 12:17:08;;;;;;;27.77;4.15;;;;;;;;;;5051564;28;20107;-67
2022/01/23 12:19:42;;;;;;;18.42;4.47;;;;;;;;;;5050134;28;20056;-65
2022/01/23 12:22:42;;;;;;;18.65;4.13;;;;;;;;;;5051318;28;20032;-68
2022/01/23 12:25:08;;;;;;;13.10;3.58;;;;;;;;;;5039085;28;20040;-68
2022/01/23 12:27:34;;;;;;;15.98;3.35;;;;;;;;;;5052092;28;20087;-68
2022/01/23 12:30:11;;;;;;;21.20;4.35;;;;;;;;;;5055627;28;20028;-67
2022/01/23 12:32:37;;;;;;;18.65;4.65;;;;;;;;;;5054195;28;20033;-68
2022/01/23 12:35:05;;;;;;;12.10;3.40;;;;;;;;;;5055417;28;20051;-68
2022/01/23 12:37:50;;;;;;;13.80;3.83;;;;;;;;;;5055025;28;20378;-64
2022/01/23 12:40:23;;;;;;;17.13;4.05;;;;;;;;;;5054802;28;20024;-61
2022/01/23 12:43:09;;;;;;;12.35;4.13;;;;;;;;;;5054567;28;20029;-62
2022/01/23 12:45:52;;;;;;;17.58;4.80;;;;;;;;;;5054958;28;20033;-62
2022/01/23 12:48:29;;;;;;;16.15;4.70;;;;;;;;;;5053391;28;20017;-65
2022/01/23 12:50:55;;;;;;;11.05;4.60;;;;;;;;;;5052949;28;20052;-65
2022/01/23 12:53:21;;;;;;;14.10;3.58;;;;;;;;;;5053216;28;20554;-62
2022/01/23 12:56:07;;;;;;;14.30;3.95;;;;;;;;;;5054093;28;20049;-64
2022/01/23 12:58:34;;;;;;;14.57;4.38;;;;;;;;;;5053829;28;20021;-65
2022/01/23 13:01:27;;;;;;;10.88;3.88;;;;;;;;;;5054127;28;20029;-64
2022/01/23 13:03:53;;;;;;;9.45;3.45;;;;;;;;;;5053386;28;20383;-67
2022/01/23 13:06:30;;;;;;;10.45;3.88;;;;;;;;;;5054348;28;20384;-66
2022/01/23 13:09:24;;;;;;;13.75;4.43;;;;;;;;;;5054636;28;20226;-67
2022/01/23 13:12:11;;;;;;;8.48;4.18;;;;;;;;;;5054155;28;20027;-67
2022/01/23 13:14:44;;;;;;;9.82;3.97;;;;;;;;;;5053737;28;20021;-68
2022/01/23 13:26:25;;;;;;;11.30;3.45;;;;;;;;;;5054250;28;20033;-68
2022/01/23 13:29:15;;;;;;;7.68;2.97;;;;;;;;;;5054166;28;20055;-68
2022/01/23 13:31:01;;;;;;;10.75;3.85;;;;;;;;;;5053570;28;20048;-68
2022/01/23 13:33:27;;;;;;;11.90;3.70;;;;;;;;;;5053928;28;20032;-66
2022/01/23 13:35:54;;;;;;;7.63;3.90;;;;;;;;;;5053865;28;20029;-65
2022/01/23 13:38:22;;;;;;;7.85;3.30;;;;;;;;;;5053744;28;20044;-66
2022/01/23 13:40:58;;;;;;;9.10;3.90;;;;;;;;;;5053813;28;20103;-66
2022/01/23 13:51:53;;;;;;;7.63;3.40;;;;;;;;;;5053683;28;20162;-67
2022/01/23 13:59:52;;;;;;;7.45;2.80;;;;;;;;;;5053764;28;20079;-66
2022/01/23 14:02:35;;;;;;;5.78;2.53;;;;;;;;;;5053334;28;20048;-66
2022/01/23 14:05:13;;;;;;;9.40;3.60;;;;;;;;;;5053399;28;20035;-66
2022/01/23 14:07:46;;;;;;;7.07;3.45;;;;;;;;;;5053480;28;20032;-66
2022/01/23 14:10:13;;;;;;;;;;;;;;;;;;5053770;28;20104;-64
2022/01/23 14:12:39;;;;;;;9.77;3.85;;;;;;;;;;5053306;28;19904;-66
2022/01/23 14:15:09;;;;;;;6.85;3.28;;;;;;;;;;5053433;28;20368;-66
2022/01/23 14:17:39;;;;;;;7.53;3.05;;;;;;;;;;5053248;28;20021;-66
2022/01/23 14:20:08;;;;;;;6.72;3.30;;;;;;;;;;5052868;28;20400;-66
2022/01/23 14:22:36;;;;;;;7.38;3.83;;;;;;;;;;5052770;28;20033;-65
2022/01/23 14:25:06;;;;;;;8.25;2.80;;;;;;;;;;5053234;28;20104;-66
2022/01/23 14:27:32;;;;;;;8.63;3.05;;;;;;;;;;5053224;28;20389;-66
2022/01/23 14:29:59;;;;;;;7.93;3.35;;;;;;;;;;5053078;28;20112;-66
2022/01/23 14:35:03;;;;;;;7.68;3.30;;;;;;;;;;5053006;28;20090;-67
2022/01/23 14:37:29;;;;;;;7.18;3.10;;;;;;;;;;5053040;28;20088;-68
2022/01/23 14:40:09;;;;;;;5.68;3.08;;;;;;;;;;5052813;28;20057;-67
2022/01/23 14:42:35;;;;;;;6.45;3.00;;;;;;;;;;5053039;28;20075;-68
2022/01/23 14:45:04;;;;;;;5.72;2.50;;;;;;;;;;5052753;28;20024;-68
2022/01/23 14:47:38;;;;;;;6.80;3.35;;;;;;;;;;5051477;28;20392;-67
2022/01/23 14:50:06;;;;;;;8.23;2.85;;;;;;;;;;5052514;28;20024;-68
2022/01/23 14:52:32;;;;;;;7.57;3.30;;;;;;;;;;5052530;28;20064;-67
2022/01/23 14:54:58;;;;;;;6.20;2.63;;;;;;;;;;5052564;28;20021;-68
2022/01/23 14:57:24;;;;;;;6.03;2.80;;;;;;;;;;5052308;28;20024;-67
2022/01/23 14:59:50;;;;;;;6.75;2.67;;;;;;;;;;5052635;28;20029;-68
2022/01/23 15:02:17;;;;;;;7.25;3.03;;;;;;;;;;5052594;28;20029;-68
2022/01/23 15:04:46;;;;;;;10.48;3.60;;;;;;;;;;5052488;28;20017;-67
2022/01/23 15:07:17;;;;;;;5.72;2.83;;;;;;;;;;5052263;28;20529;-65
2022/01/23 15:09:45;;;;;;;6.13;3.25;;;;;;;;;;5052357;28;20025;-67
2022/01/23 15:12:11;;;;;;;6.38;3.10;;;;;;;;;;5051971;28;20107;-68
2022/01/23 15:14:38;;;;;;;7.28;3.05;;;;;;;;;;5052113;28;20151;-66
2022/01/23 15:17:04;;;;;;;5.72;2.95;;;;;;;;;;5052483;28;20032;-67
2022/01/23 15:19:30;;;;;;;7.45;3.45;;;;;;;;;;5052123;28;20180;-66
2022/01/23 15:21:56;;;;;;;8.13;3.45;;;;;;;;;;5052244;28;20494;-67
2022/01/23 15:24:22;;;;;;;6.10;2.92;;;;;;;;;;5052199;28;20108;-67
2022/01/23 15:26:48;;;;;;;6.80;2.70;;;;;;;;;;5051850;28;20529;-67
2022/01/23 15:29:15;;;;;;;6.38;2.72;;;;;;;;;;5051775;28;20024;-66
2022/01/23 15:31:41;;;;;;;6.20;3.08;;;;;;;;;;5052050;28;20013;-67
2022/01/23 15:34:07;;;;;;;5.90;2.83;;;;;;;;;;5050838;28;20475;-67
2022/01/23 15:36:33;;;;;;;6.13;2.67;;;;;;;;;;5051729;28;20494;-67
2022/01/23 15:39:01;;;;;;;6.05;2.85;;;;;;;;;;5051884;28;20045;-66
2022/01/23 15:41:27;;;;;;;7.22;3.50;;;;;;;;;;5051790;28;20027;-68
2022/01/23 15:43:53;;;;;;;5.95;2.83;;;;;;;;;;5051754;28;20035;-67
2022/01/23 15:46:19;;;;;;;8.00;2.67;;;;;;;;;;5051763;28;20090;-68
2022/01/23 15:48:46;;;;;;;6.25;2.55;;;;;;;;;;5051851;28;20017;-65
2022/01/23 15:51:12;;;;;;;6.63;2.90;;;;;;;;;;5051696;28;20443;-66
2022/01/23 15:53:39;;;;;;;5.72;3.03;;;;;;;;;;5050473;28;20032;-66
2022/01/23 15:56:05;;;;;;;5.57;2.75;;;;;;;;;;5050358;28;20481;-67
2022/01/23 15:58:31;;;;;;;6.53;3.20;;;;;;;;;;5051648;28;20025;-68
2022/01/23 16:00:57;;;;;;;9.07;3.35;;;;;;;;;;5051886;28;20029;-66
2022/01/23 16:03:26;;;;;;;6.10;2.70;;;;;;;;;;5050801;28;20040;-67
2022/01/23 16:05:52;;;;;;;6.78;3.10;;;;;;;;;;5051700;28;20422;-68
2022/01/23 16:08:19;;;;;;;7.28;3.08;;;;;;;;;;5051639;28;20028;-68
2022/01/23 16:10:45;;;;;;;6.97;3.28;;;;;;;;;;5050293;28;20082;-66
2022/01/23 16:13:11;;;;;;;5.63;2.75;;;;;;;;;;5051454;28;20059;-67
2022/01/23 16:15:38;;;;;;;6.13;2.75;;;;;;;;;;5051441;28;20025;-67
2022/01/23 16:18:04;;;;;;;8.73;3.00;;;;;;;;;;5051612;28;20090;-68
2022/01/23 16:20:30;;;;;;;6.07;2.80;;;;;;;;;;5051284;28;20041;-67
2022/01/23 16:22:56;;;;;;;6.50;3.03;;;;;;;;;;5051359;28;20506;-67
2022/01/23 16:25:22;;;;;;;5.32;2.65;;;;;;;;;;5051473;28;20421;-67
2022/01/23 16:27:49;;;;;;;6.03;2.97;;;;;;;;;;5051207;28;20582;-67
2022/01/23 16:30:16;;;;;;;6.95;2.95;;;;;;;;;;5051086;28;20025;-67
2022/01/23 16:32:45;;;;;;;5.75;2.70;;;;;;;;;;5051075;28;20025;-66
2022/01/23 16:35:14;;;;;;;6.28;2.67;;;;;;;;;;5051138;28;20018;-68
2022/01/23 16:37:40;;;;;;;5.93;2.78;;;;;;;;;;5051058;28;20028;-67
2022/01/23 16:40:07;;;;;;;8.20;2.92;;;;;;;;;;5051169;28;20100;-68
2022/01/23 16:42:33;;;;;;;6.80;3.20;;;;;;;;;;5051280;28;20359;-68
2022/01/23 16:44:59;;;;;;;6.05;2.88;;;;;;;;;;5051292;28;20021;-67
2022/01/23 16:47:25;;;;;;;6.78;3.25;;;;;;;;;;5051114;28;20554;-67
2022/01/23 16:49:51;;;;;;;7.13;2.78;;;;;;;;;;5051083;28;20405;-67
2022/01/23 16:52:17;;;;;;;6.63;3.20;;;;;;;;;;5050997;28;20033;-66
2022/01/23 16:54:45;;;;;;;7.63;3.15;;;;;;;;;;5051053;28;20025;-65
2022/01/23 16:57:11;;;;;;;7.55;2.80;;;;;;;;;;5051108;28;20074;-67
2022/01/23 16:59:38;;;;;;;6.68;3.25;;;;;;;;;;5051025;28;20476;-66
2022/01/23 17:02:04;;;;;;;6.13;2.92;;;;;;;;;;5050895;28;20021;-68
2022/01/23 17:04:33;;;;;;;7.57;3.47;;;;;;;;;;5049827;28;20108;-68
2022/01/23 17:06:59;;;;;;;7.18;3.03;;;;;;;;;;5049954;28;20395;-68
2022/01/23 17:09:29;;;;;;;8.13;3.60;;;;;;;;;;5050947;28;20021;-67
2022/01/23 17:11:55;;;;;;;8.10;3.30;;;;;;;;;;5050984;28;20024;-66
2022/01/23 17:14:21;;;;;;;6.80;2.90;;;;;;;;;;5052753;28;20634;-67
2022/01/23 17:16:47;;;;;;;5.50;2.60;;;;;;;;;;5053250;28;20415;-68
2022/01/23 17:19:13;;;;;;;5.80;2.90;;;;;;;;;;5054162;28;20021;-67
2022/01/23 17:21:40;;;;;;;8.85;3.55;;;;;;;;;;5054347;28;20039;-67
2022/01/23 17:24:06;;;;;;;6.97;3.55;;;;;;;;;;5053659;28;20087;-66
2022/01/23 17:26:33;;;;;;;6.05;3.30;;;;;;;;;;5054145;28;20036;-66
2022/01/23 17:28:59;;;;;;;7.50;3.05;;;;;;;;;;5054052;28;20016;-66
2022/01/23 17:31:26;;;;;;;5.78;3.20;;;;;;;;;;5053942;28;20035;-67
2022/01/23 17:33:52;;;;;;;6.88;3.47;;;;;;;;;;5054017;28;20013;-67
2022/01/23 17:36:18;;;;;;;7.88;3.08;;;;;;;;;;5054145;28;20052;-67
2022/01/23 17:38:44;;;;;;;6.72;3.30;;;;;;;;;;5054021;28;20068;-67
2022/01/23 17:41:12;;;;;;;7.13;3.40;;;;;;;;;;5053750;28;20055;-68
2022/01/23 17:43:38;;;;;;;7.45;3.33;;;;;;;;;;5052642;28;20532;-68
2022/01/23 17:46:06;;;;;;;9.32;4.38;;;;;;;;;;5053882;28;20024;-67
2022/01/23 17:49:03;;;;;;;8.25;4.07;;;;;;;;;;5054087;28;20552;-68
2022/01/23 17:51:24;;;;;;;7.47;3.25;;;;;;;;;;5053287;28;20159;-67